createdAt,value
2023-02-02T00:00:59.508Z,3.90
2023-02-02T00:03:28.730Z,3.60
2023-02-02T00:05:58.011Z,3.60
2023-02-02T00:08:27.207Z,3.60
2023-02-02T00:10:56.322Z,3.50
2023-02-02T00:13:25.449Z,3.50
2023-02-02T00:15:56.484Z,3.60
2023-02-02T00:18:35.145Z,3.70
2023-02-02T00:21:05.119Z,3.40
2023-02-02T00:23:34.210Z,3.60
2023-02-02T00:26:03.246Z,3.80
2023-02-02T00:28:32.399Z,4.00
2023-02-02T00:31:03.023Z,4.00
2023-02-02T00:33:34.379Z,3.90
2023-02-02T00:36:04.161Z,4.10
2023-02-02T00:38:37.680Z,4.20
2023-02-02T00:41:07.562Z,4.10
2023-02-02T00:43:36.820Z,4.30
2023-02-02T00:46:06.546Z,4.50
2023-02-02T00:48:36.322Z,4.20
2023-02-02T00:51:05.638Z,4.10
2023-02-02T00:53:34.262Z,4.40
2023-02-02T00:56:02.843Z,4.40
2023-02-02T00:58:31.453Z,4.50
2023-02-02T01:01:00.046Z,4.40
2023-02-02T01:03:30.045Z,4.20
2023-02-02T01:05:58.622Z,4.30
2023-02-02T01:08:27.324Z,4.10
2023-02-02T01:10:55.920Z,4.30
2023-02-02T01:13:24.512Z,4.30
2023-02-02T01:15:57.103Z,4.00
2023-02-02T01:18:25.981Z,4.10
2023-02-02T01:21:00.621Z,4.40
2023-02-02T01:23:29.507Z,4.00
2023-02-02T01:25:59.379Z,4.10
2023-02-02T01:28:29.162Z,3.60
2023-02-02T01:30:58.422Z,3.80
2023-02-02T01:33:27.317Z,4.10
2023-02-02T01:35:57.540Z,4.00
2023-02-02T01:38:27.742Z,3.70
2023-02-02T01:40:59.139Z,4.00
2023-02-02T01:43:30.798Z,3.60
2023-02-02T01:46:00.330Z,3.50
2023-02-02T01:48:33.654Z,3.30
2023-02-02T01:51:06.252Z,3.10
2023-02-02T01:53:37.941Z,3.20
2023-02-02T01:56:09.531Z,3.10
2023-02-02T01:58:41.513Z,1.60
2023-02-02T02:01:11.457Z,2.90
2023-02-02T02:03:41.010Z,3.20
2023-02-02T02:06:12.857Z,3.00
2023-02-02T02:08:48.372Z,3.00
2023-02-02T02:11:17.121Z,3.10
2023-02-02T02:14:03.132Z,3.10
2023-02-02T02:16:44.723Z,2.80
2023-02-02T02:19:36.540Z,3.00
2023-02-02T02:22:29.200Z,2.80
2023-02-02T02:25:55.582Z,2.80
2023-02-02T02:28:53.035Z,2.60
2023-02-02T02:31:57.260Z,2.60
2023-02-02T02:34:34.441Z,2.60
2023-02-02T02:37:11.799Z,2.60
2023-02-02T02:39:48.460Z,2.70
2023-02-02T02:42:21.900Z,2.70
2023-02-02T02:44:52.472Z,2.50
2023-02-02T02:47:24.169Z,2.90
2023-02-02T02:49:53.030Z,2.80
2023-02-02T02:52:21.621Z,2.60
2023-02-02T02:54:52.845Z,2.70
2023-02-02T02:57:41.364Z,2.50
2023-02-02T03:00:26.019Z,2.70
2023-02-02T03:03:05.638Z,2.70
2023-02-02T03:05:39.700Z,2.60
2023-02-02T03:08:13.758Z,2.30
2023-02-02T03:10:45.560Z,2.60
2023-02-02T03:13:15.583Z,2.50
2023-02-02T03:15:45.617Z,2.60
2023-02-02T03:18:18.746Z,2.80
2023-02-02T03:20:47.635Z,2.80
2023-02-02T03:23:16.702Z,3.00
2023-02-02T03:25:45.712Z,3.30
2023-02-02T03:28:14.609Z,3.30
2023-02-02T03:30:44.271Z,3.40
2023-02-02T03:33:14.301Z,3.40
2023-02-02T03:35:44.433Z,3.60
2023-02-02T03:38:13.811Z,3.40
2023-02-02T03:40:42.607Z,3.50
2023-02-02T03:43:12.412Z,3.40
2023-02-02T03:45:41.659Z,3.30
2023-02-02T03:48:10.270Z,3.10
2023-02-02T03:50:38.976Z,3.20
2023-02-02T03:53:09.034Z,3.30
2023-02-02T03:55:39.110Z,3.70
2023-02-02T03:58:10.282Z,3.40
2023-02-02T04:00:38.994Z,3.50
2023-02-02T04:03:07.635Z,3.00
2023-02-02T04:05:36.302Z,3.00
2023-02-02T04:08:05.011Z,2.80
2023-02-02T04:10:34.995Z,3.10
2023-02-02T04:13:04.063Z,3.40
2023-02-02T04:15:32.668Z,3.30
2023-02-02T04:18:01.240Z,3.20
2023-02-02T04:20:29.814Z,3.10
2023-02-02T04:22:58.521Z,3.10
2023-02-02T04:25:27.514Z,3.00
2023-02-02T04:27:57.560Z,3.00
2023-02-02T04:30:26.172Z,3.00
2023-02-02T04:32:55.931Z,3.10
2023-02-02T04:35:24.959Z,3.00
2023-02-02T04:37:53.711Z,2.70
2023-02-02T04:40:22.254Z,3.00
2023-02-02T04:42:50.773Z,2.70
2023-02-02T04:45:20.784Z,3.00
2023-02-02T04:47:49.374Z,2.80
2023-02-02T04:50:18.331Z,2.60
2023-02-02T04:52:47.281Z,2.60
2023-02-02T04:55:16.174Z,2.70
2023-02-02T04:57:44.949Z,2.70
2023-02-02T05:00:14.735Z,2.70
2023-02-02T05:02:44.992Z,2.50
2023-02-02T05:05:15.502Z,2.60
2023-02-02T05:07:44.120Z,2.70
2023-02-02T05:10:13.361Z,2.70
2023-02-02T05:12:42.015Z,5.30
2023-02-02T05:15:11.881Z,2.80
2023-02-02T05:17:40.433Z,2.80
2023-02-02T05:20:11.935Z,2.70
2023-02-02T05:22:40.472Z,3.10
2023-02-02T05:25:10.149Z,3.00
2023-02-02T05:27:39.251Z,2.80
2023-02-02T05:30:09.103Z,2.80
2023-02-02T05:32:37.719Z,2.60
2023-02-02T05:35:07.274Z,2.90
2023-02-02T05:37:37.221Z,2.70
2023-02-02T05:40:06.667Z,2.60
2023-02-02T05:42:35.216Z,2.60
2023-02-02T05:45:03.840Z,2.80
2023-02-02T05:47:32.367Z,2.60
2023-02-02T05:50:02.539Z,2.60
2023-02-02T05:52:36.698Z,2.70
2023-02-02T05:55:07.444Z,2.80
2023-02-02T05:57:36.027Z,2.50
2023-02-02T06:00:05.591Z,2.40
2023-02-02T06:02:40.712Z,2.50
2023-02-02T06:05:09.894Z,2.80
2023-02-02T06:07:38.544Z,2.50
2023-02-02T06:10:09.213Z,2.40
2023-02-02T06:12:37.787Z,2.30
2023-02-02T06:15:07.432Z,2.50
2023-02-02T06:17:36.010Z,2.10
2023-02-02T06:20:04.912Z,2.20
2023-02-02T06:22:33.990Z,2.50
2023-02-02T06:25:04.443Z,2.30
2023-02-02T06:27:34.535Z,2.50
2023-02-02T06:30:03.171Z,2.60
2023-02-02T06:32:31.816Z,2.50
2023-02-02T06:35:00.437Z,2.10
2023-02-02T06:37:30.689Z,1.90
2023-02-02T06:39:59.394Z,1.90
2023-02-02T06:42:28.103Z,2.10
2023-02-02T06:44:58.083Z,2.20
2023-02-02T06:47:27.025Z,2.20
2023-02-02T06:49:55.802Z,2.30
2023-02-02T06:52:24.516Z,2.20
2023-02-02T06:54:53.075Z,2.40
2023-02-02T06:57:21.710Z,2.50
2023-02-02T06:59:51.273Z,2.80
2023-02-02T07:02:23.428Z,2.70
2023-02-02T07:04:52.980Z,2.80
2023-02-02T07:07:21.568Z,2.60
2023-02-02T07:09:58.051Z,2.70
2023-02-02T07:12:28.054Z,3.00
2023-02-02T07:14:56.671Z,3.00
2023-02-02T07:17:26.787Z,2.90
2023-02-02T07:19:55.414Z,3.10
2023-02-02T07:22:23.993Z,3.30
2023-02-02T07:24:54.664Z,3.40
2023-02-02T07:27:23.232Z,3.00
2023-02-02T07:29:51.855Z,3.10
2023-02-02T07:32:20.431Z,3.30
2023-02-02T07:34:50.458Z,3.30
2023-02-02T07:37:19.452Z,3.30
2023-02-02T07:39:48.111Z,3.30
2023-02-02T07:42:16.622Z,3.30
2023-02-02T07:44:45.175Z,3.40
2023-02-02T07:47:13.827Z,3.80
2023-02-02T07:49:42.946Z,3.60
2023-02-02T07:52:12.945Z,3.90
2023-02-02T07:54:41.533Z,3.80
2023-02-02T07:57:10.133Z,3.80
2023-02-02T07:59:38.692Z,4.30
2023-02-02T08:02:07.307Z,4.50
2023-02-02T08:04:35.905Z,4.30
2023-02-02T08:07:04.682Z,4.70
2023-02-02T08:09:34.666Z,4.70
2023-02-02T08:12:03.294Z,4.60
2023-02-02T08:14:32.505Z,5.00
2023-02-02T08:17:01.073Z,5.20
2023-02-02T08:19:29.671Z,5.20
2023-02-02T08:21:58.203Z,5.30
2023-02-02T08:24:29.144Z,5.50
2023-02-02T08:26:59.169Z,5.50
2023-02-02T08:29:27.786Z,5.70
2023-02-02T08:31:56.385Z,5.60
2023-02-02T08:34:24.941Z,6.10
2023-02-02T08:36:53.582Z,6.10
2023-02-02T08:39:22.772Z,6.20
2023-02-02T08:41:51.281Z,6.30
2023-02-02T08:44:22.393Z,6.20
2023-02-02T08:46:53.617Z,6.20
2023-02-02T08:49:22.699Z,6.00
2023-02-02T08:51:51.171Z,6.10
2023-02-02T08:54:19.677Z,6.30
2023-02-02T08:56:48.393Z,6.20
2023-02-02T08:59:16.935Z,6.30
2023-02-02T09:01:46.894Z,6.40
2023-02-02T09:04:17.558Z,6.50
2023-02-02T09:06:46.304Z,6.50
2023-02-02T09:09:16.617Z,6.30
2023-02-02T09:11:45.836Z,6.50
2023-02-02T09:14:15.579Z,6.70
2023-02-02T09:16:44.465Z,7.10
2023-02-02T09:19:14.588Z,6.90
2023-02-02T09:21:43.134Z,7.10
2023-02-02T09:24:13.220Z,7.20
2023-02-02T09:26:41.912Z,7.50
2023-02-02T09:29:13.801Z,7.10
2023-02-02T09:31:42.705Z,7.40
2023-02-02T09:34:14.815Z,7.40
2023-02-02T09:36:44.595Z,7.40
2023-02-02T09:39:15.171Z,7.30
2023-02-02T09:42:03.844Z,7.50
2023-02-02T09:44:57.166Z,7.80
2023-02-02T09:47:32.906Z,7.70
2023-02-02T09:50:06.425Z,7.70
2023-02-02T09:52:42.810Z,7.80
2023-02-02T09:55:19.496Z,7.90
2023-02-02T09:57:53.191Z,8.00
2023-02-02T10:00:30.762Z,8.00
2023-02-02T10:03:04.031Z,8.30
2023-02-02T10:05:46.042Z,8.20
2023-02-02T10:08:33.638Z,8.50
2023-02-02T10:11:12.648Z,8.60
2023-02-02T10:13:43.837Z,8.50
2023-02-02T10:16:18.377Z,8.70
2023-02-02T10:18:53.060Z,8.90
2023-02-02T10:21:30.540Z,9.00
2023-02-02T10:24:01.965Z,8.80
2023-02-02T10:26:38.177Z,8.90
2023-02-02T10:29:19.784Z,9.30
2023-02-02T10:31:59.158Z,9.30
2023-02-02T10:34:38.361Z,9.30
2023-02-02T10:37:28.417Z,9.60
2023-02-02T10:40:12.814Z,9.90
2023-02-02T10:43:12.690Z,10.10
2023-02-02T10:45:45.012Z,10.00
2023-02-02T10:48:16.842Z,9.80
2023-02-02T10:50:49.530Z,9.90
2023-02-02T10:53:20.414Z,10.50
2023-02-02T10:55:55.046Z,10.20
2023-02-02T10:58:29.330Z,10.40
2023-02-02T11:01:02.272Z,10.60
2023-02-02T11:03:33.099Z,10.60
2023-02-02T11:06:21.823Z,10.60
2023-02-02T11:08:56.960Z,10.90
2023-02-02T11:11:27.641Z,11.00
2023-02-02T11:14:00.460Z,10.70
2023-02-02T11:16:42.133Z,10.80
2023-02-02T11:19:25.371Z,10.90
2023-02-02T11:21:57.079Z,11.00
2023-02-02T11:24:30.143Z,11.40
2023-02-02T11:27:02.088Z,11.40
2023-02-02T11:29:33.016Z,11.60
2023-02-02T11:32:20.171Z,11.50
2023-02-02T11:34:48.796Z,11.30
2023-02-02T11:37:22.831Z,11.30
2023-02-02T11:39:54.016Z,11.60
2023-02-02T11:42:25.260Z,11.60
2023-02-02T11:44:55.762Z,11.90
2023-02-02T11:47:28.721Z,11.70
2023-02-02T11:49:59.348Z,11.70
2023-02-02T11:52:32.710Z,12.40
2023-02-02T11:55:10.795Z,12.30
2023-02-02T11:57:39.491Z,12.10
2023-02-02T12:00:17.649Z,12.50
2023-02-02T12:02:48.649Z,12.60
2023-02-02T12:05:36.333Z,13.10
2023-02-02T12:08:05.179Z,13.00
2023-02-02T12:10:43.169Z,13.10
2023-02-02T12:13:20.968Z,13.10
2023-02-02T12:15:55.662Z,12.90
2023-02-02T12:18:39.442Z,13.50
2023-02-02T12:21:13.861Z,13.50
2023-02-02T12:23:56.451Z,13.80
2023-02-02T12:26:30.854Z,13.40
2023-02-02T12:29:23.611Z,13.00
2023-02-02T12:32:07.740Z,13.20
2023-02-02T12:34:49.812Z,13.80
2023-02-02T12:37:32.335Z,13.90
2023-02-02T12:40:19.836Z,13.50
2023-02-02T12:43:04.124Z,13.30
2023-02-02T12:45:53.435Z,13.40
2023-02-02T12:48:35.911Z,13.80
2023-02-02T12:51:20.893Z,13.90
2023-02-02T12:54:32.711Z,14.30
2023-02-02T12:57:12.212Z,14.10
2023-02-02T13:00:05.253Z,14.40
2023-02-02T13:02:40.334Z,13.90
2023-02-02T13:05:34.043Z,14.30
2023-02-02T13:08:06.782Z,14.60
2023-02-02T13:10:41.585Z,14.30
2023-02-02T13:13:15.277Z,14.40
2023-02-02T13:15:48.718Z,14.30
2023-02-02T13:18:22.305Z,14.50
2023-02-02T13:20:56.522Z,14.80
2023-02-02T13:23:28.763Z,14.60
2023-02-02T13:26:03.524Z,14.80
2023-02-02T13:28:41.593Z,15.00
2023-02-02T13:31:17.941Z,15.10
2023-02-02T13:33:50.590Z,15.10
2023-02-02T13:36:26.211Z,15.50
2023-02-02T13:38:58.935Z,15.20
2023-02-02T13:41:29.112Z,14.50
2023-02-02T13:44:02.903Z,14.80
2023-02-02T13:46:38.082Z,14.40
2023-02-02T13:49:13.872Z,14.80
2023-02-02T13:51:55.169Z,15.00
2023-02-02T13:54:54.032Z,14.70
2023-02-02T13:57:53.083Z,14.80
2023-02-02T14:00:24.453Z,14.40
2023-02-02T14:02:56.635Z,14.70
2023-02-02T14:05:29.111Z,15.20
2023-02-02T14:08:03.424Z,15.00
2023-02-02T14:10:36.118Z,15.00
2023-02-02T14:13:38.434Z,14.10
2023-02-02T14:16:09.233Z,14.70
2023-02-02T14:18:57.937Z,14.00
2023-02-02T14:22:04.846Z,14.40
2023-02-02T14:24:46.154Z,13.90
2023-02-02T14:27:54.499Z,14.00
2023-02-02T14:30:29.818Z,14.00
2023-02-02T14:33:40.831Z,13.00
2023-02-02T14:36:17.059Z,13.40
2023-02-02T14:39:12.694Z,13.70
2023-02-02T14:42:16.952Z,13.40
2023-02-02T14:45:15.856Z,13.60
2023-02-02T14:47:49.931Z,13.60
2023-02-02T14:50:23.192Z,13.10
2023-02-02T14:53:03.155Z,13.00
2023-02-02T14:55:32.665Z,13.00
2023-02-02T14:58:03.916Z,13.00
2023-02-02T15:00:34.707Z,13.30
2023-02-02T15:03:35.606Z,13.20
2023-02-02T15:06:08.786Z,13.30
2023-02-02T15:08:38.873Z,13.40
2023-02-02T15:11:26.890Z,13.30
2023-02-02T15:14:07.159Z,13.30
2023-02-02T15:16:38.842Z,13.10
2023-02-02T15:19:23.912Z,13.10
2023-02-02T15:21:56.049Z,13.10
2023-02-02T15:24:28.482Z,15.40
2023-02-02T15:27:00.162Z,12.70
2023-02-02T15:29:39.283Z,12.70
2023-02-02T15:32:08.552Z,12.60
2023-02-02T15:34:43.934Z,12.70
2023-02-02T15:37:17.149Z,13.50
2023-02-02T15:39:49.422Z,12.50
2023-02-02T15:42:38.577Z,12.10
2023-02-02T15:45:07.912Z,13.80
2023-02-02T15:47:42.514Z,11.80
2023-02-02T15:50:20.362Z,11.50
2023-02-02T15:52:50.511Z,11.20
2023-02-02T15:55:26.337Z,10.80
2023-02-02T15:57:55.573Z,10.70
2023-02-02T16:00:27.664Z,10.50
2023-02-02T16:03:01.785Z,10.50
2023-02-02T16:05:47.454Z,10.40
2023-02-02T16:08:19.716Z,10.50
2023-02-02T16:10:50.314Z,10.20
2023-02-02T16:13:28.042Z,10.30
2023-02-02T16:15:58.943Z,9.90
2023-02-02T16:18:28.237Z,9.50
2023-02-02T16:21:00.194Z,9.70
2023-02-02T16:23:34.213Z,9.40
2023-02-02T16:26:06.544Z,9.60
2023-02-02T16:28:36.413Z,9.50
2023-02-02T16:31:05.724Z,9.30
2023-02-02T16:33:39.588Z,9.50
2023-02-02T16:36:25.170Z,9.30
2023-02-02T16:38:56.156Z,9.20
2023-02-02T16:41:32.526Z,8.90
2023-02-02T16:44:32.743Z,9.10
2023-02-02T16:47:01.914Z,8.90
2023-02-02T16:49:32.144Z,8.80
2023-02-02T16:52:19.749Z,8.90
2023-02-02T16:54:53.490Z,8.50
2023-02-02T16:57:27.439Z,8.40
2023-02-02T16:59:58.663Z,8.70
2023-02-02T17:02:31.137Z,8.70
2023-02-02T17:05:04.565Z,8.60
2023-02-02T17:07:35.858Z,8.40
2023-02-02T17:10:22.690Z,8.60
2023-02-02T17:12:52.960Z,8.40
2023-02-02T17:15:34.515Z,8.20
2023-02-02T17:18:05.118Z,8.10
2023-02-02T17:20:34.915Z,8.00
2023-02-02T17:23:10.051Z,8.10
2023-02-02T17:25:42.606Z,8.20
2023-02-02T17:28:14.811Z,7.90
2023-02-02T17:30:44.498Z,7.80
2023-02-02T17:33:14.983Z,7.90
2023-02-02T17:35:54.434Z,8.10
2023-02-02T17:38:25.507Z,8.00
2023-02-02T17:40:55.100Z,7.90
2023-02-02T17:43:25.273Z,7.90
2023-02-02T17:45:54.036Z,7.70
2023-02-02T17:48:23.614Z,7.70
2023-02-02T17:50:52.491Z,7.70
2023-02-02T17:53:23.322Z,7.90
2023-02-02T17:55:53.460Z,7.60
2023-02-02T17:58:22.127Z,7.80
2023-02-02T18:00:55.175Z,7.60
2023-02-02T18:03:27.759Z,7.60
2023-02-02T18:05:57.795Z,7.70
2023-02-02T18:08:26.434Z,7.60
2023-02-02T18:10:55.144Z,7.40
2023-02-02T18:13:25.332Z,7.40
2023-02-02T18:15:56.291Z,7.50
2023-02-02T18:18:25.005Z,7.70
2023-02-02T18:20:53.596Z,7.60
2023-02-02T18:23:24.608Z,7.80
2023-02-02T18:25:53.872Z,7.30
2023-02-02T18:28:22.549Z,7.30
2023-02-02T18:30:51.242Z,7.20
2023-02-02T18:33:23.465Z,7.20
2023-02-02T18:35:52.307Z,7.10
2023-02-02T18:38:21.411Z,7.00
2023-02-02T18:40:57.283Z,6.90
2023-02-02T18:43:25.992Z,7.00
2023-02-02T18:46:00.259Z,6.80
2023-02-02T18:48:31.602Z,7.30
2023-02-02T18:51:00.714Z,7.30
2023-02-02T18:53:29.282Z,7.10
2023-02-02T18:55:58.254Z,7.20
2023-02-02T18:58:27.698Z,7.20
2023-02-02T19:00:56.353Z,7.30
2023-02-02T19:03:24.987Z,7.50
2023-02-02T19:06:15.246Z,7.20
2023-02-02T19:08:45.114Z,6.90
2023-02-02T19:11:17.524Z,6.60
2023-02-02T19:13:47.181Z,6.40
2023-02-02T19:16:21.467Z,6.60
2023-02-02T19:18:51.520Z,6.70
2023-02-02T19:21:21.616Z,6.70
2023-02-02T19:23:50.257Z,6.80
2023-02-02T19:26:24.899Z,6.60
2023-02-02T19:28:54.445Z,6.40
2023-02-02T19:31:31.026Z,5.90
2023-02-02T19:34:01.251Z,6.10
2023-02-02T19:36:34.376Z,6.30
2023-02-02T19:39:12.327Z,6.20
2023-02-02T19:41:43.264Z,6.30
2023-02-02T19:44:18.075Z,6.50
2023-02-02T19:46:49.061Z,6.30
2023-02-02T19:49:24.813Z,6.30
2023-02-02T19:51:56.033Z,6.30
2023-02-02T19:54:30.840Z,6.60
2023-02-02T19:57:01.024Z,6.60
2023-02-02T19:59:36.682Z,6.70
2023-02-02T20:02:43.449Z,6.40
2023-02-02T20:05:23.486Z,6.60
2023-02-02T20:07:59.341Z,6.50
2023-02-02T20:10:30.409Z,6.40
2023-02-02T20:12:59.013Z,6.80
2023-02-02T20:15:34.192Z,6.60
2023-02-02T20:18:06.079Z,6.10
2023-02-02T20:20:40.230Z,6.10
2023-02-02T20:23:23.945Z,6.00
2023-02-02T20:25:52.675Z,6.10
2023-02-02T20:28:34.049Z,6.30
2023-02-02T20:31:05.121Z,6.10
2023-02-02T20:33:34.090Z,6.00
2023-02-02T20:36:03.394Z,6.00
2023-02-02T20:38:39.902Z,5.90
2023-02-02T20:41:08.662Z,6.00
2023-02-02T20:43:37.345Z,5.90
2023-02-02T20:46:06.226Z,5.80
2023-02-02T20:48:35.263Z,5.60
2023-02-02T20:51:03.822Z,5.60
2023-02-02T20:53:32.581Z,5.70
2023-02-02T20:56:03.295Z,5.70
2023-02-02T20:58:32.211Z,5.50
2023-02-02T21:01:05.499Z,5.10
2023-02-02T21:03:34.822Z,5.10
2023-02-02T21:06:03.413Z,5.40
2023-02-02T21:08:32.191Z,5.20
2023-02-02T21:11:03.734Z,5.60
2023-02-02T21:13:32.382Z,5.20
2023-02-02T21:16:00.978Z,5.20
2023-02-02T21:18:29.582Z,5.40
2023-02-02T21:20:58.273Z,5.40
2023-02-02T21:23:27.278Z,5.20
2023-02-02T21:25:55.929Z,5.50
2023-02-02T21:28:26.051Z,5.70
2023-02-02T21:30:54.715Z,5.40
2023-02-02T21:33:23.413Z,5.50
2023-02-02T21:35:52.036Z,5.30
2023-02-02T21:38:20.603Z,5.20
2023-02-02T21:40:50.142Z,5.20
2023-02-02T21:43:20.151Z,5.30
2023-02-02T21:45:53.079Z,5.20
2023-02-02T21:48:34.323Z,5.00
2023-02-02T21:51:20.962Z,5.20
2023-02-02T21:53:49.631Z,5.40
2023-02-02T21:56:31.002Z,5.20
2023-02-02T21:59:00.587Z,5.00
2023-02-02T22:01:37.283Z,5.10
2023-02-02T22:04:13.433Z,5.20
2023-02-02T22:06:45.158Z,5.40
2023-02-02T22:09:19.971Z,5.20
2023-02-02T22:11:52.457Z,5.10
2023-02-02T22:14:28.285Z,5.20
2023-02-02T22:17:00.284Z,5.30
2023-02-02T22:19:34.551Z,5.40
2023-02-02T22:22:18.772Z,5.10
2023-02-02T22:24:59.736Z,5.00
2023-02-02T22:27:41.686Z,5.40
2023-02-02T22:30:21.055Z,5.40
2023-02-02T22:32:51.152Z,5.00
2023-02-02T22:35:19.882Z,5.20
2023-02-02T22:37:48.705Z,5.20
2023-02-02T22:40:17.535Z,5.20
2023-02-02T22:42:46.073Z,5.20
2023-02-02T22:45:14.793Z,5.00
2023-02-02T22:47:43.885Z,5.00
2023-02-02T22:50:14.143Z,4.80
2023-02-02T22:52:42.855Z,4.60
2023-02-02T22:55:12.412Z,4.60
2023-02-02T22:57:41.281Z,4.60
2023-02-02T23:00:12.881Z,4.90
2023-02-02T23:02:42.431Z,4.50
2023-02-02T23:05:14.577Z,4.00
2023-02-02T23:07:44.347Z,4.20
2023-02-02T23:10:15.645Z,4.30
2023-02-02T23:12:44.655Z,4.60
2023-02-02T23:15:14.991Z,4.30
2023-02-02T23:17:43.825Z,4.40
2023-02-02T23:20:15.937Z,4.70
2023-02-02T23:22:44.886Z,4.50
2023-02-02T23:25:14.376Z,4.40
2023-02-02T23:27:43.443Z,4.80
2023-02-02T23:30:14.107Z,4.90
2023-02-02T23:32:42.820Z,5.00
2023-02-02T23:35:11.473Z,5.00
2023-02-02T23:37:41.608Z,4.80
2023-02-02T23:40:11.894Z,5.00
2023-02-02T23:42:40.461Z,4.80
2023-02-02T23:45:09.881Z,4.90
2023-02-02T23:47:38.486Z,4.70
2023-02-02T23:50:10.202Z,4.60
2023-02-02T23:52:40.502Z,4.40
2023-02-02T23:55:10.715Z,4.40
2023-02-02T23:57:39.520Z,4.20
